sensor_id;sensor_type;location;lat;lon;timestamp;P1;durP1;ratioP1;P2;durP2;ratioP2
22632;SDS011;11483;55.828;37.488;2022-10-22T00:00:55;12.32;;;5.07;;
22632;SDS011;11483;55.828;37.488;2022-10-22T00:03:21;8.10;;;4.38;;
22632;SDS011;11483;55.828;37.488;2022-10-22T00:05:47;9.85;;;4.82;;
22632;SDS011;11483;55.828;37.488;2022-10-22T00:08:13;11.18;;;5.32;;
22632;SDS011;11483;55.828;37.488;2022-10-22T00:10:39;8.95;;;5.20;;
22632;SDS011;11483;55.828;37.488;2022-10-22T00:13:05;12.63;;;6.07;;
22632;SDS011;11483;55.828;37.488;2022-10-22T00:15:31;13.05;;;5.55;;
22632;SDS011;11483;55.828;37.488;2022-10-22T00:17:58;13.90;;;6.40;;
22632;SDS011;11483;55.828;37.488;2022-10-22T00:20:23;12.10;;;5.40;;
22632;SDS011;11483;55.828;37.488;2022-10-22T00:22:49;9.82;;;5.20;;
22632;SDS011;11483;55.828;37.488;2022-10-22T00:25:15;11.68;;;4.95;;
22632;SDS011;11483;55.828;37.488;2022-10-22T00:27:41;10.68;;;5.82;;
22632;SDS011;11483;55.828;37.488;2022-10-22T00:30:07;14.25;;;5.53;;
22632;SDS011;11483;55.828;37.488;2022-10-22T00:32:33;14.02;;;5.05;;
22632;SDS011;11483;55.828;37.488;2022-10-22T00:34:59;10.32;;;4.78;;
22632;SDS011;11483;55.828;37.488;2022-10-22T00:37:25;9.95;;;5.78;;
22632;SDS011;11483;55.828;37.488;2022-10-22T00:39:50;12.45;;;5.70;;
22632;SDS011;11483;55.828;37.488;2022-10-22T00:42:17;11.85;;;5.78;;
22632;SDS011;11483;55.828;37.488;2022-10-22T00:45:06;9.98;;;5.30;;
22632;SDS011;11483;55.828;37.488;2022-10-22T00:47:34;16.13;;;6.00;;
22632;SDS011;11483;55.828;37.488;2022-10-22T00:50:04;11.70;;;5.43;;
22632;SDS011;11483;55.828;37.488;2022-10-22T00:52:33;15.68;;;6.15;;
22632;SDS011;11483;55.828;37.488;2022-10-22T00:54:59;9.90;;;5.68;;
22632;SDS011;11483;55.828;37.488;2022-10-22T00:57:26;10.35;;;5.38;;
22632;SDS011;11483;55.828;37.488;2022-10-22T00:59:52;15.50;;;5.53;;
22632;SDS011;11483;55.828;37.488;2022-10-22T01:02:19;12.00;;;5.75;;
22632;SDS011;11483;55.828;37.488;2022-10-22T01:04:45;16.40;;;5.13;;
22632;SDS011;11483;55.828;37.488;2022-10-22T01:07:19;11.52;;;5.45;;
22632;SDS011;11483;55.828;37.488;2022-10-22T01:09:58;12.02;;;5.55;;
22632;SDS011;11483;55.828;37.488;2022-10-22T01:18:43;9.73;;;5.53;;
22632;SDS011;11483;55.828;37.488;2022-10-22T01:21:38;13.98;;;6.38;;
22632;SDS011;11483;55.828;37.488;2022-10-22T01:29:52;16.17;;;6.10;;
22632;SDS011;11483;55.828;37.488;2022-10-22T01:32:40;13.55;;;7.43;;
22632;SDS011;11483;55.828;37.488;2022-10-22T01:35:14;15.10;;;7.20;;
22632;SDS011;11483;55.828;37.488;2022-10-22T01:38:08;18.40;;;7.82;;
22632;SDS011;11483;55.828;37.488;2022-10-22T01:40:41;16.00;;;7.68;;
22632;SDS011;11483;55.828;37.488;2022-10-22T01:43:09;18.55;;;8.07;;
22632;SDS011;11483;55.828;37.488;2022-10-22T01:45:39;16.38;;;8.10;;
22632;SDS011;11483;55.828;37.488;2022-10-22T02:07:49;15.35;;;7.72;;
22632;SDS011;11483;55.828;37.488;2022-10-22T02:10:19;15.30;;;7.68;;
22632;SDS011;11483;55.828;37.488;2022-10-22T02:12:51;17.05;;;7.90;;
22632;SDS011;11483;55.828;37.488;2022-10-22T02:15:19;13.93;;;6.88;;
22632;SDS011;11483;55.828;37.488;2022-10-22T02:17:48;17.38;;;7.32;;
22632;SDS011;11483;55.828;37.488;2022-10-22T02:20:21;14.82;;;6.80;;
22632;SDS011;11483;55.828;37.488;2022-10-22T02:22:51;17.88;;;8.00;;
22632;SDS011;11483;55.828;37.488;2022-10-22T02:25:17;17.92;;;6.90;;
22632;SDS011;11483;55.828;37.488;2022-10-22T02:30:30;14.60;;;7.35;;
22632;SDS011;11483;55.828;37.488;2022-10-22T02:33:08;19.10;;;7.93;;
22632;SDS011;11483;55.828;37.488;2022-10-22T02:36:05;16.13;;;7.43;;
22632;SDS011;11483;55.828;37.488;2022-10-22T02:38:32;15.73;;;7.00;;
22632;SDS011;11483;55.828;37.488;2022-10-22T02:41:00;12.15;;;6.40;;
22632;SDS011;11483;55.828;37.488;2022-10-22T02:43:27;13.77;;;6.03;;
22632;SDS011;11483;55.828;37.488;2022-10-22T02:45:53;11.70;;;6.38;;
22632;SDS011;11483;55.828;37.488;2022-10-22T02:48:19;13.27;;;6.25;;
22632;SDS011;11483;55.828;37.488;2022-10-22T02:50:45;20.55;;;5.93;;
22632;SDS011;11483;55.828;37.488;2022-10-22T02:53:11;10.15;;;5.47;;
22632;SDS011;11483;55.828;37.488;2022-10-22T02:55:37;12.93;;;6.55;;
22632;SDS011;11483;55.828;37.488;2022-10-22T02:58:02;11.43;;;5.72;;
22632;SDS011;11483;55.828;37.488;2022-10-22T03:00:28;14.55;;;6.50;;
22632;SDS011;11483;55.828;37.488;2022-10-22T03:02:54;12.57;;;6.38;;
22632;SDS011;11483;55.828;37.488;2022-10-22T03:05:20;12.73;;;6.65;;
22632;SDS011;11483;55.828;37.488;2022-10-22T03:07:45;13.77;;;6.30;;
22632;SDS011;11483;55.828;37.488;2022-10-22T03:10:11;13.45;;;5.75;;
22632;SDS011;11483;55.828;37.488;2022-10-22T03:12:37;12.75;;;6.38;;
22632;SDS011;11483;55.828;37.488;2022-10-22T03:15:03;11.70;;;5.97;;
22632;SDS011;11483;55.828;37.488;2022-10-22T03:17:29;12.95;;;6.22;;
22632;SDS011;11483;55.828;37.488;2022-10-22T03:19:55;15.23;;;6.85;;
22632;SDS011;11483;55.828;37.488;2022-10-22T03:22:25;14.30;;;6.45;;
22632;SDS011;11483;55.828;37.488;2022-10-22T03:24:54;15.18;;;7.00;;
22632;SDS011;11483;55.828;37.488;2022-10-22T03:27:23;14.23;;;6.25;;
22632;SDS011;11483;55.828;37.488;2022-10-22T03:29:51;13.73;;;6.85;;
22632;SDS011;11483;55.828;37.488;2022-10-22T03:32:17;14.90;;;7.03;;
22632;SDS011;11483;55.828;37.488;2022-10-22T03:34:43;15.88;;;6.32;;
22632;SDS011;11483;55.828;37.488;2022-10-22T03:37:09;13.48;;;6.40;;
22632;SDS011;11483;55.828;37.488;2022-10-22T03:39:35;12.15;;;6.18;;
22632;SDS011;11483;55.828;37.488;2022-10-22T03:42:02;13.18;;;6.78;;
22632;SDS011;11483;55.828;37.488;2022-10-22T03:44:29;12.20;;;6.20;;
22632;SDS011;11483;55.828;37.488;2022-10-22T03:46:56;12.57;;;6.22;;
22632;SDS011;11483;55.828;37.488;2022-10-22T03:49:21;14.93;;;5.97;;
22632;SDS011;11483;55.828;37.488;2022-10-22T03:51:47;13.82;;;6.22;;
22632;SDS011;11483;55.828;37.488;2022-10-22T03:54:14;15.98;;;6.80;;
22632;SDS011;11483;55.828;37.488;2022-10-22T03:56:40;17.13;;;6.72;;
22632;SDS011;11483;55.828;37.488;2022-10-22T03:59:06;13.68;;;6.60;;
22632;SDS011;11483;55.828;37.488;2022-10-22T04:01:32;14.25;;;6.15;;
22632;SDS011;11483;55.828;37.488;2022-10-22T04:03:58;13.20;;;6.45;;
22632;SDS011;11483;55.828;37.488;2022-10-22T04:06:24;11.15;;;5.78;;
22632;SDS011;11483;55.828;37.488;2022-10-22T04:08:50;14.55;;;6.75;;
22632;SDS011;11483;55.828;37.488;2022-10-22T04:11:16;11.73;;;6.18;;
22632;SDS011;11483;55.828;37.488;2022-10-22T04:13:42;15.45;;;5.65;;
22632;SDS011;11483;55.828;37.488;2022-10-22T04:16:09;13.13;;;6.43;;
22632;SDS011;11483;55.828;37.488;2022-10-22T04:18:36;11.75;;;6.25;;
22632;SDS011;11483;55.828;37.488;2022-10-22T04:21:02;18.70;;;6.13;;
22632;SDS011;11483;55.828;37.488;2022-10-22T04:23:29;11.60;;;5.75;;
22632;SDS011;11483;55.828;37.488;2022-10-22T04:25:59;13.90;;;5.88;;
22632;SDS011;11483;55.828;37.488;2022-10-22T04:28:26;15.82;;;6.57;;
22632;SDS011;11483;55.828;37.488;2022-10-22T04:30:52;14.35;;;6.60;;
22632;SDS011;11483;55.828;37.488;2022-10-22T04:33:17;15.73;;;6.15;;
22632;SDS011;11483;55.828;37.488;2022-10-22T04:35:44;15.02;;;5.90;;
22632;SDS011;11483;55.828;37.488;2022-10-22T04:38:11;18.10;;;6.80;;
22632;SDS011;11483;55.828;37.488;2022-10-22T04:40:37;14.73;;;5.90;;
22632;SDS011;11483;55.828;37.488;2022-10-22T04:43:02;14.80;;;6.20;;
22632;SDS011;11483;55.828;37.488;2022-10-22T04:45:28;11.88;;;5.85;;
22632;SDS011;11483;55.828;37.488;2022-10-22T04:47:54;14.05;;;6.32;;
22632;SDS011;11483;55.828;37.488;2022-10-22T04:50:21;8.93;;;4.63;;
22632;SDS011;11483;55.828;37.488;2022-10-22T04:52:46;11.95;;;6.07;;
22632;SDS011;11483;55.828;37.488;2022-10-22T04:55:12;17.90;;;5.20;;
22632;SDS011;11483;55.828;37.488;2022-10-22T04:57:38;12.38;;;5.63;;
22632;SDS011;11483;55.828;37.488;2022-10-22T05:00:04;11.55;;;5.88;;
22632;SDS011;11483;55.828;37.488;2022-10-22T05:02:30;11.20;;;6.63;;
22632;SDS011;11483;55.828;37.488;2022-10-22T05:04:56;12.57;;;6.22;;
22632;SDS011;11483;55.828;37.488;2022-10-22T05:07:22;11.00;;;5.55;;
22632;SDS011;11483;55.828;37.488;2022-10-22T05:09:48;13.90;;;6.65;;
22632;SDS011;11483;55.828;37.488;2022-10-22T05:12:14;11.00;;;5.50;;
22632;SDS011;11483;55.828;37.488;2022-10-22T05:14:39;12.10;;;5.47;;
22632;SDS011;11483;55.828;37.488;2022-10-22T05:17:06;8.55;;;3.88;;
22632;SDS011;11483;55.828;37.488;2022-10-22T05:19:32;11.18;;;5.40;;
22632;SDS011;11483;55.828;37.488;2022-10-22T05:21:59;14.00;;;5.43;;
22632;SDS011;11483;55.828;37.488;2022-10-22T05:24:26;13.13;;;6.32;;
22632;SDS011;11483;55.828;37.488;2022-10-22T05:26:54;13.23;;;6.65;;
22632;SDS011;11483;55.828;37.488;2022-10-22T05:29:22;17.00;;;6.60;;
22632;SDS011;11483;55.828;37.488;2022-10-22T05:31:48;18.75;;;6.90;;
22632;SDS011;11483;55.828;37.488;2022-10-22T05:34:14;12.02;;;6.43;;
22632;SDS011;11483;55.828;37.488;2022-10-22T05:36:40;15.20;;;7.10;;
22632;SDS011;11483;55.828;37.488;2022-10-22T05:39:06;13.88;;;6.90;;
22632;SDS011;11483;55.828;37.488;2022-10-22T05:41:32;12.48;;;6.50;;
22632;SDS011;11483;55.828;37.488;2022-10-22T05:44:02;14.93;;;6.55;;
22632;SDS011;11483;55.828;37.488;2022-10-22T05:46:31;11.55;;;5.43;;
22632;SDS011;11483;55.828;37.488;2022-10-22T05:49:01;14.40;;;6.32;;
22632;SDS011;11483;55.828;37.488;2022-10-22T05:51:29;11.52;;;5.80;;
22632;SDS011;11483;55.828;37.488;2022-10-22T05:54:00;10.85;;;5.40;;
22632;SDS011;11483;55.828;37.488;2022-10-22T05:56:27;11.68;;;5.95;;
22632;SDS011;11483;55.828;37.488;2022-10-22T05:58:54;12.27;;;5.35;;
22632;SDS011;11483;55.828;37.488;2022-10-22T06:01:22;17.17;;;5.97;;
22632;SDS011;11483;55.828;37.488;2022-10-22T06:03:52;9.98;;;5.70;;
22632;SDS011;11483;55.828;37.488;2022-10-22T06:08:56;10.23;;;5.78;;
22632;SDS011;11483;55.828;37.488;2022-10-22T06:11:26;7.22;;;4.60;;
22632;SDS011;11483;55.828;37.488;2022-10-22T06:13:52;11.50;;;5.07;;
22632;SDS011;11483;55.828;37.488;2022-10-22T06:16:18;9.68;;;4.90;;
22632;SDS011;11483;55.828;37.488;2022-10-22T06:18:44;10.25;;;5.03;;
22632;SDS011;11483;55.828;37.488;2022-10-22T06:21:10;9.07;;;5.03;;
22632;SDS011;11483;55.828;37.488;2022-10-22T06:23:38;11.88;;;4.78;;
22632;SDS011;11483;55.828;37.488;2022-10-22T06:26:05;7.90;;;4.30;;
22632;SDS011;11483;55.828;37.488;2022-10-22T06:28:32;9.00;;;4.57;;
22632;SDS011;11483;55.828;37.488;2022-10-22T06:30:59;9.10;;;4.95;;
22632;SDS011;11483;55.828;37.488;2022-10-22T06:33:26;12.60;;;4.20;;
22632;SDS011;11483;55.828;37.488;2022-10-22T06:35:53;7.40;;;4.55;;
22632;SDS011;11483;55.828;37.488;2022-10-22T06:38:19;8.15;;;4.65;;
22632;SDS011;11483;55.828;37.488;2022-10-22T06:40:45;12.20;;;4.30;;
22632;SDS011;11483;55.828;37.488;2022-10-22T06:43:11;7.32;;;4.40;;
22632;SDS011;11483;55.828;37.488;2022-10-22T06:45:37;8.00;;;4.85;;
22632;SDS011;11483;55.828;37.488;2022-10-22T06:48:04;10.07;;;4.65;;
22632;SDS011;11483;55.828;37.488;2022-10-22T06:50:30;7.05;;;4.15;;
22632;SDS011;11483;55.828;37.488;2022-10-22T06:52:57;9.07;;;4.82;;
22632;SDS011;11483;55.828;37.488;2022-10-22T06:55:23;10.52;;;4.65;;
22632;SDS011;11483;55.828;37.488;2022-10-22T06:57:49;11.93;;;5.43;;
22632;SDS011;11483;55.828;37.488;2022-10-22T07:00:15;9.32;;;5.38;;
22632;SDS011;11483;55.828;37.488;2022-10-22T07:02:41;17.33;;;5.18;;
22632;SDS011;11483;55.828;37.488;2022-10-22T07:05:07;9.10;;;5.05;;
22632;SDS011;11483;55.828;37.488;2022-10-22T07:07:33;8.70;;;4.82;;
22632;SDS011;11483;55.828;37.488;2022-10-22T07:09:59;10.27;;;4.45;;
22632;SDS011;11483;55.828;37.488;2022-10-22T07:12:25;11.63;;;5.25;;
22632;SDS011;11483;55.828;37.488;2022-10-22T07:14:51;10.23;;;5.03;;
22632;SDS011;11483;55.828;37.488;2022-10-22T07:17:16;8.13;;;4.75;;
22632;SDS011;11483;55.828;37.488;2022-10-22T07:19:42;8.60;;;5.32;;
22632;SDS011;11483;55.828;37.488;2022-10-22T07:22:08;11.77;;;5.03;;
22632;SDS011;11483;55.828;37.488;2022-10-22T07:24:34;10.30;;;5.30;;
22632;SDS011;11483;55.828;37.488;2022-10-22T07:27:00;7.35;;;3.80;;
22632;SDS011;11483;55.828;37.488;2022-10-22T07:29:26;6.18;;;4.32;;
22632;SDS011;11483;55.828;37.488;2022-10-22T07:31:52;11.65;;;5.00;;
22632;SDS011;11483;55.828;37.488;2022-10-22T07:34:18;12.63;;;5.63;;
22632;SDS011;11483;55.828;37.488;2022-10-22T07:36:44;8.57;;;4.57;;
22632;SDS011;11483;55.828;37.488;2022-10-22T07:39:09;11.23;;;4.40;;
22632;SDS011;11483;55.828;37.488;2022-10-22T07:41:35;10.05;;;5.45;;
22632;SDS011;11483;55.828;37.488;2022-10-22T07:44:01;12.20;;;5.65;;
22632;SDS011;11483;55.828;37.488;2022-10-22T07:46:27;12.60;;;5.82;;
22632;SDS011;11483;55.828;37.488;2022-10-22T07:48:53;9.70;;;5.68;;
22632;SDS011;11483;55.828;37.488;2022-10-22T07:51:19;9.75;;;5.90;;
22632;SDS011;11483;55.828;37.488;2022-10-22T07:53:45;12.25;;;6.05;;
22632;SDS011;11483;55.828;37.488;2022-10-22T07:56:11;9.05;;;4.90;;
22632;SDS011;11483;55.828;37.488;2022-10-22T07:58:37;15.32;;;5.72;;
22632;SDS011;11483;55.828;37.488;2022-10-22T08:01:04;9.52;;;5.25;;
22632;SDS011;11483;55.828;37.488;2022-10-22T08:03:30;17.80;;;5.97;;
22632;SDS011;11483;55.828;37.488;2022-10-22T08:05:56;10.75;;;5.13;;
22632;SDS011;11483;55.828;37.488;2022-10-22T08:08:23;8.93;;;4.78;;
22632;SDS011;11483;55.828;37.488;2022-10-22T08:10:50;9.60;;;5.40;;
22632;SDS011;11483;55.828;37.488;2022-10-22T08:13:17;9.23;;;5.18;;
22632;SDS011;11483;55.828;37.488;2022-10-22T08:15:43;13.68;;;5.88;;
22632;SDS011;11483;55.828;37.488;2022-10-22T08:18:11;7.60;;;4.07;;
22632;SDS011;11483;55.828;37.488;2022-10-22T08:20:37;14.35;;;4.95;;
22632;SDS011;11483;55.828;37.488;2022-10-22T08:23:02;7.72;;;4.22;;
22632;SDS011;11483;55.828;37.488;2022-10-22T08:25:29;10.00;;;4.97;;
22632;SDS011;11483;55.828;37.488;2022-10-22T08:27:55;9.07;;;4.55;;
22632;SDS011;11483;55.828;37.488;2022-10-22T08:30:20;6.68;;;3.90;;
22632;SDS011;11483;55.828;37.488;2022-10-22T08:32:46;7.90;;;4.10;;
22632;SDS011;11483;55.828;37.488;2022-10-22T08:35:12;4.63;;;3.10;;
22632;SDS011;11483;55.828;37.488;2022-10-22T08:37:39;6.65;;;3.40;;
22632;SDS011;11483;55.828;37.488;2022-10-22T08:40:05;7.72;;;3.50;;
22632;SDS011;11483;55.828;37.488;2022-10-22T08:45:14;6.72;;;4.20;;
22632;SDS011;11483;55.828;37.488;2022-10-22T08:48:12;6.18;;;3.50;;
22632;SDS011;11483;55.828;37.488;2022-10-22T08:50:48;6.72;;;3.70;;
22632;SDS011;11483;55.828;37.488;2022-10-22T08:53:19;7.97;;;4.10;;
22632;SDS011;11483;55.828;37.488;2022-10-22T08:55:48;11.52;;;4.10;;
22632;SDS011;11483;55.828;37.488;2022-10-22T09:00:59;8.02;;;3.88;;
22632;SDS011;11483;55.828;37.488;2022-10-22T09:04:03;9.57;;;3.70;;
22632;SDS011;11483;55.828;37.488;2022-10-22T09:06:56;6.43;;;3.55;;
22632;SDS011;11483;55.828;37.488;2022-10-22T09:09:24;7.95;;;3.70;;
22632;SDS011;11483;55.828;37.488;2022-10-22T09:11:55;10.25;;;4.78;;
22632;SDS011;11483;55.828;37.488;2022-10-22T09:14:23;10.50;;;4.55;;
22632;SDS011;11483;55.828;37.488;2022-10-22T09:22:43;6.35;;;3.67;;
22632;SDS011;11483;55.828;37.488;2022-10-22T09:25:20;5.25;;;3.40;;
22632;SDS011;11483;55.828;37.488;2022-10-22T09:27:53;15.88;;;4.78;;
22632;SDS011;11483;55.828;37.488;2022-10-22T09:30:23;8.63;;;3.53;;
22632;SDS011;11483;55.828;37.488;2022-10-22T09:35:32;9.40;;;3.80;;
22632;SDS011;11483;55.828;37.488;2022-10-22T09:38:04;8.45;;;4.63;;
22632;SDS011;11483;55.828;37.488;2022-10-22T09:40:40;9.35;;;4.53;;
22632;SDS011;11483;55.828;37.488;2022-10-22T09:43:12;10.38;;;4.20;;
22632;SDS011;11483;55.828;37.488;2022-10-22T09:45:39;11.20;;;4.15;;
22632;SDS011;11483;55.828;37.488;2022-10-22T09:50:56;10.00;;;4.60;;
22632;SDS011;11483;55.828;37.488;2022-10-22T09:53:37;12.10;;;4.50;;
22632;SDS011;11483;55.828;37.488;2022-10-22T09:56:16;8.63;;;4.40;;
22632;SDS011;11483;55.828;37.488;2022-10-22T09:58:48;6.93;;;4.20;;
22632;SDS011;11483;55.828;37.488;2022-10-22T10:01:21;10.43;;;3.95;;
22632;SDS011;11483;55.828;37.488;2022-10-22T10:04:11;4.20;;;3.42;;
22632;SDS011;11483;55.828;37.488;2022-10-22T10:06:41;6.78;;;3.83;;
22632;SDS011;11483;55.828;37.488;2022-10-22T10:09:29;6.45;;;3.35;;
22632;SDS011;11483;55.828;37.488;2022-10-22T10:31:06;7.30;;;3.33;;
22632;SDS011;11483;55.828;37.488;2022-10-22T10:33:52;8.05;;;3.72;;
22632;SDS011;11483;55.828;37.488;2022-10-22T10:42:00;7.55;;;3.08;;
22632;SDS011;11483;55.828;37.488;2022-10-22T10:47:28;4.35;;;2.72;;
22632;SDS011;11483;55.828;37.488;2022-10-22T10:50:24;6.47;;;4.00;;
22632;SDS011;11483;55.828;37.488;2022-10-22T10:53:04;8.20;;;3.58;;
22632;SDS011;11483;55.828;37.488;2022-10-22T10:56:06;4.88;;;2.55;;
22632;SDS011;11483;55.828;37.488;2022-10-22T11:07:44;4.32;;;2.80;;
22632;SDS011;11483;55.828;37.488;2022-10-22T11:15:49;5.70;;;3.42;;
22632;SDS011;11483;55.828;37.488;2022-10-22T11:21:17;8.07;;;3.58;;
22632;SDS011;11483;55.828;37.488;2022-10-22T11:28:58;7.28;;;3.50;;
22632;SDS011;11483;55.828;37.488;2022-10-22T11:31:25;9.93;;;3.60;;
22632;SDS011;11483;55.828;37.488;2022-10-22T11:36:36;5.47;;;3.15;;
22632;SDS011;11483;55.828;37.488;2022-10-22T11:39:03;7.22;;;3.55;;
22632;SDS011;11483;55.828;37.488;2022-10-22T11:41:29;7.20;;;3.38;;
22632;SDS011;11483;55.828;37.488;2022-10-22T11:51:42;7.57;;;3.03;;
22632;SDS011;11483;55.828;37.488;2022-10-22T11:57:16;7.60;;;3.83;;
22632;SDS011;11483;55.828;37.488;2022-10-22T11:59:51;5.15;;;3.40;;
22632;SDS011;11483;55.828;37.488;2022-10-22T12:02:27;6.57;;;3.40;;
22632;SDS011;11483;55.828;37.488;2022-10-22T12:08:19;12.98;;;3.38;;
22632;SDS011;11483;55.828;37.488;2022-10-22T12:14:02;10.00;;;3.08;;
22632;SDS011;11483;55.828;37.488;2022-10-22T12:16:51;6.07;;;2.95;;
22632;SDS011;11483;55.828;37.488;2022-10-22T12:24:46;4.78;;;2.58;;
22632;SDS011;11483;55.828;37.488;2022-10-22T12:27:20;6.85;;;3.22;;
22632;SDS011;11483;55.828;37.488;2022-10-22T12:29:47;7.35;;;2.83;;
22632;SDS011;11483;55.828;37.488;2022-10-22T12:32:14;5.22;;;2.90;;
22632;SDS011;11483;55.828;37.488;2022-10-22T12:34:44;4.22;;;2.53;;
22632;SDS011;11483;55.828;37.488;2022-10-22T12:37:12;8.57;;;3.00;;
22632;SDS011;11483;55.828;37.488;2022-10-22T12:39:40;4.32;;;2.80;;
22632;SDS011;11483;55.828;37.488;2022-10-22T12:42:09;3.50;;;2.60;;
22632;SDS011;11483;55.828;37.488;2022-10-22T12:44:38;7.65;;;2.53;;
22632;SDS011;11483;55.828;37.488;2022-10-22T12:47:04;2.85;;;2.35;;
22632;SDS011;11483;55.828;37.488;2022-10-22T12:49:37;4.68;;;2.90;;
22632;SDS011;11483;55.828;37.488;2022-10-22T12:52:07;6.28;;;2.65;;
22632;SDS011;11483;55.828;37.488;2022-10-22T12:54:39;5.38;;;3.20;;
22632;SDS011;11483;55.828;37.488;2022-10-22T12:57:09;4.90;;;2.90;;
22632;SDS011;11483;55.828;37.488;2022-10-22T12:59:40;6.80;;;2.83;;
22632;SDS011;11483;55.828;37.488;2022-10-22T13:02:19;6.13;;;3.20;;
22632;SDS011;11483;55.828;37.488;2022-10-22T13:05:07;7.97;;;3.42;;
22632;SDS011;11483;55.828;37.488;2022-10-22T13:08:03;6.65;;;3.20;;
22632;SDS011;11483;55.828;37.488;2022-10-22T13:10:34;3.70;;;2.30;;
22632;SDS011;11483;55.828;37.488;2022-10-22T13:13:02;3.47;;;2.00;;
22632;SDS011;11483;55.828;37.488;2022-10-22T13:20:51;5.22;;;1.73;;
22632;SDS011;11483;55.828;37.488;2022-10-22T13:23:23;3.42;;;2.08;;
22632;SDS011;11483;55.828;37.488;2022-10-22T13:28:40;4.70;;;2.38;;
22632;SDS011;11483;55.828;37.488;2022-10-22T13:31:08;4.05;;;2.05;;
22632;SDS011;11483;55.828;37.488;2022-10-22T13:33:40;2.63;;;1.70;;
22632;SDS011;11483;55.828;37.488;2022-10-22T13:36:14;2.72;;;1.70;;
22632;SDS011;11483;55.828;37.488;2022-10-22T13:38:41;3.97;;;2.08;;
22632;SDS011;11483;55.828;37.488;2022-10-22T13:44:02;4.05;;;2.13;;
22632;SDS011;11483;55.828;37.488;2022-10-22T13:46:28;8.65;;;3.15;;
22632;SDS011;11483;55.828;37.488;2022-10-22T13:48:55;5.60;;;2.65;;
22632;SDS011;11483;55.828;37.488;2022-10-22T13:51:24;5.18;;;2.35;;
22632;SDS011;11483;55.828;37.488;2022-10-22T13:53:55;10.75;;;2.58;;
22632;SDS011;11483;55.828;37.488;2022-10-22T13:56:22;7.22;;;2.28;;
22632;SDS011;11483;55.828;37.488;2022-10-22T13:58:48;6.20;;;2.33;;
22632;SDS011;11483;55.828;37.488;2022-10-22T14:01:21;11.63;;;2.47;;
22632;SDS011;11483;55.828;37.488;2022-10-22T14:03:49;3.75;;;1.60;;
22632;SDS011;11483;55.828;37.488;2022-10-22T14:06:18;5.03;;;2.00;;
22632;SDS011;11483;55.828;37.488;2022-10-22T14:08:46;3.50;;;1.73;;
22632;SDS011;11483;55.828;37.488;2022-10-22T14:11:15;5.20;;;1.55;;
22632;SDS011;11483;55.828;37.488;2022-10-22T14:13:41;3.55;;;2.03;;
22632;SDS011;11483;55.828;37.488;2022-10-22T14:16:11;5.97;;;2.70;;
22632;SDS011;11483;55.828;37.488;2022-10-22T14:18:43;4.97;;;2.60;;
22632;SDS011;11483;55.828;37.488;2022-10-22T14:21:09;5.32;;;2.22;;
22632;SDS011;11483;55.828;37.488;2022-10-22T14:23:38;5.88;;;2.10;;
22632;SDS011;11483;55.828;37.488;2022-10-22T14:26:05;8.80;;;2.80;;
22632;SDS011;11483;55.828;37.488;2022-10-22T14:28:32;5.22;;;2.50;;
22632;SDS011;11483;55.828;37.488;2022-10-22T14:30:59;4.30;;;2.50;;
22632;SDS011;11483;55.828;37.488;2022-10-22T14:33:25;8.20;;;3.05;;
22632;SDS011;11483;55.828;37.488;2022-10-22T14:35:53;8.98;;;3.67;;
22632;SDS011;11483;55.828;37.488;2022-10-22T14:38:19;8.80;;;3.60;;
22632;SDS011;11483;55.828;37.488;2022-10-22T14:40:45;6.00;;;3.20;;
22632;SDS011;11483;55.828;37.488;2022-10-22T14:43:32;6.13;;;3.25;;
22632;SDS011;11483;55.828;37.488;2022-10-22T14:45:57;10.05;;;3.63;;
22632;SDS011;11483;55.828;37.488;2022-10-22T14:48:23;14.07;;;3.33;;
22632;SDS011;11483;55.828;37.488;2022-10-22T14:50:49;7.30;;;3.25;;
22632;SDS011;11483;55.828;37.488;2022-10-22T14:53:15;7.03;;;3.63;;
22632;SDS011;11483;55.828;37.488;2022-10-22T14:55:42;9.85;;;4.13;;
22632;SDS011;11483;55.828;37.488;2022-10-22T14:58:09;7.30;;;3.63;;
22632;SDS011;11483;55.828;37.488;2022-10-22T15:00:36;9.13;;;4.00;;
22632;SDS011;11483;55.828;37.488;2022-10-22T15:03:03;8.85;;;4.30;;
22632;SDS011;11483;55.828;37.488;2022-10-22T15:05:29;7.07;;;3.80;;
22632;SDS011;11483;55.828;37.488;2022-10-22T15:07:54;9.63;;;3.95;;
22632;SDS011;11483;55.828;37.488;2022-10-22T15:10:23;11.00;;;3.83;;
22632;SDS011;11483;55.828;37.488;2022-10-22T15:12:49;12.32;;;4.40;;
22632;SDS011;11483;55.828;37.488;2022-10-22T15:15:15;8.88;;;3.90;;
22632;SDS011;11483;55.828;37.488;2022-10-22T15:17:41;7.20;;;4.10;;
22632;SDS011;11483;55.828;37.488;2022-10-22T15:20:07;10.23;;;4.47;;
22632;SDS011;11483;55.828;37.488;2022-10-22T15:22:34;9.18;;;4.53;;
22632;SDS011;11483;55.828;37.488;2022-10-22T15:25:08;11.10;;;4.65;;
22632;SDS011;11483;55.828;37.488;2022-10-22T15:27:35;10.02;;;4.50;;
22632;SDS011;11483;55.828;37.488;2022-10-22T15:30:00;8.70;;;5.10;;
22632;SDS011;11483;55.828;37.488;2022-10-22T15:32:26;9.48;;;4.93;;
22632;SDS011;11483;55.828;37.488;2022-10-22T15:34:53;8.70;;;4.47;;
22632;SDS011;11483;55.828;37.488;2022-10-22T15:37:20;9.50;;;4.53;;
22632;SDS011;11483;55.828;37.488;2022-10-22T15:39:46;15.05;;;5.00;;
22632;SDS011;11483;55.828;37.488;2022-10-22T15:42:13;9.88;;;4.70;;
22632;SDS011;11483;55.828;37.488;2022-10-22T15:44:40;11.55;;;5.22;;
22632;SDS011;11483;55.828;37.488;2022-10-22T15:47:06;10.27;;;4.90;;
22632;SDS011;11483;55.828;37.488;2022-10-22T15:49:33;8.95;;;4.82;;
22632;SDS011;11483;55.828;37.488;2022-10-22T15:52:01;14.80;;;5.28;;
22632;SDS011;11483;55.828;37.488;2022-10-22T15:54:28;9.27;;;5.00;;
22632;SDS011;11483;55.828;37.488;2022-10-22T15:56:56;10.02;;;5.32;;
22632;SDS011;11483;55.828;37.488;2022-10-22T15:59:23;15.23;;;4.90;;
22632;SDS011;11483;55.828;37.488;2022-10-22T16:01:49;9.98;;;5.05;;
22632;SDS011;11483;55.828;37.488;2022-10-22T16:04:16;11.40;;;5.28;;
22632;SDS011;11483;55.828;37.488;2022-10-22T16:06:46;9.43;;;5.40;;
22632;SDS011;11483;55.828;37.488;2022-10-22T16:09:14;14.23;;;5.70;;
22632;SDS011;11483;55.828;37.488;2022-10-22T16:11:43;14.75;;;5.75;;
22632;SDS011;11483;55.828;37.488;2022-10-22T16:14:10;10.70;;;5.35;;
22632;SDS011;11483;55.828;37.488;2022-10-22T16:16:40;12.73;;;5.50;;
22632;SDS011;11483;55.828;37.488;2022-10-22T16:19:09;14.95;;;5.07;;
22632;SDS011;11483;55.828;37.488;2022-10-22T16:21:36;13.82;;;5.00;;
22632;SDS011;11483;55.828;37.488;2022-10-22T16:24:02;13.02;;;5.20;;
22632;SDS011;11483;55.828;37.488;2022-10-22T16:26:29;10.95;;;5.22;;
22632;SDS011;11483;55.828;37.488;2022-10-22T16:28:55;12.82;;;5.40;;
22632;SDS011;11483;55.828;37.488;2022-10-22T16:31:22;11.23;;;5.22;;
22632;SDS011;11483;55.828;37.488;2022-10-22T16:33:48;9.82;;;5.22;;
22632;SDS011;11483;55.828;37.488;2022-10-22T16:36:15;11.70;;;6.43;;
22632;SDS011;11483;55.828;37.488;2022-10-22T16:38:44;16.63;;;6.15;;
22632;SDS011;11483;55.828;37.488;2022-10-22T16:41:11;15.25;;;6.00;;
22632;SDS011;11483;55.828;37.488;2022-10-22T16:43:45;14.77;;;6.20;;
22632;SDS011;11483;55.828;37.488;2022-10-22T16:46:13;10.60;;;5.22;;
22632;SDS011;11483;55.828;37.488;2022-10-22T16:48:46;11.40;;;6.20;;
22632;SDS011;11483;55.828;37.488;2022-10-22T16:51:18;15.30;;;6.40;;
22632;SDS011;11483;55.828;37.488;2022-10-22T16:53:46;13.10;;;6.05;;
22632;SDS011;11483;55.828;37.488;2022-10-22T16:56:12;12.80;;;6.10;;
22632;SDS011;11483;55.828;37.488;2022-10-22T16:58:43;12.70;;;6.03;;